Lakota, ND (58344)

12:40 AM CDT on September 27, 2016 (GMT -0500)
Lakota | | Change Station
Active Advisory: Frost Advisory

Elev 1529 ft 48.04 °N, 98.35 °W | Updated 9 seconds ago

Clear
Clear
43.6 °F
Feels Like 41 °F
N
5.0
Wind Variable Wind from WNW

Today
High -- | Low -- °F
--% Chance of Precip.
Yesterday
High -- | Low -- °F
Precip. -- in
Pressure 30.05 in
Visibility 10.0 miles
Clouds Clear
Windchill 41 °F
Dew Point 36 °F
Humidity 76%
Rainfall 0.00 in
Snow Depth Not available.
7:27 AM 7:19 PM
Waning Crescent, 14% visible
METAR KDVL 270456Z AUTO 30009KT 10SM CLR 08/03 A2999 RMK AO2 SLP176 T00780028 401780067
Pressure 30.05 in
Visibility 10.0 miles
Clouds Clear
Windchill 41 °F
Dew Point 36 °F
Humidity 76%
Rainfall 0.00 in
Snow Depth Not available.
7:27 AM 7:19 PM
Waning Crescent, 14% visible
METAR KDVL 270456Z AUTO 30009KT 10SM CLR 08/03 A2999 RMK AO2 SLP176 T00780028 401780067

10-Day Weather Forecast

Almanac

Astronomy

Sep. 27, 2016 Rise Set
Actual Time
Civil Twilight
Nautical Twilight
Astronomical Twilight
Moon
Length of Visible Light
Length of Day
Tomorrow will be .
, % of the Moon is Illuminated

Today's Extremes

State Highs State Lows

Community

WunderPhotos

Upload Photos

1,942,037 photos uploaded!

WunderBlog® & News

Nearby

Air Quality

  Air Quality AQ Index Pollutant
Not available.

Snow Depth

Station Depth Elevation

Earthquake Activity

City Distance Mag. Time & Date
Minimum magnitude displayed is 2.5.

Coastal Water Temperatures

Place Temperature

Stations

Nearby Weather Stations

Station Location Temp. Windchill Dew Point Humidity Wind Precip. Elev Updated Type
                   

Watches & Warnings

Frost Advisory
Issued: 8:41 PM CDT Sep. 26, 2016 – National Weather Service

... Frost advisory remains in effect from 1 am to 8 am CDT
Tuesday...

* temperatures... dropping to 33 to 38.

* Timing... late tonight into early Tuesday.

Precautionary/preparedness actions...

A frost advisory means that widespread frost is expected.
Sensitive outdoor plants may be killed if left uncovered.